sensor_id;sensor_type;location;lat;lon;timestamp;temperature;humidity
12872;DHT22;6504;53.766;9.626;2022-12-20T00:02:05;5.70;99.90
12872;DHT22;6504;53.766;9.626;2022-12-20T00:04:33;5.80;99.90
12872;DHT22;6504;53.766;9.626;2022-12-20T00:07:02;5.80;99.90
12872;DHT22;6504;53.766;9.626;2022-12-20T00:09:30;5.80;99.90
12872;DHT22;6504;53.766;9.626;2022-12-20T00:11:58;5.80;99.90
12872;DHT22;6504;53.766;9.626;2022-12-20T00:14:26;5.80;99.90
12872;DHT22;6504;53.766;9.626;2022-12-20T00:16:54;5.80;99.90
12872;DHT22;6504;53.766;9.626;2022-12-20T00:19:22;5.80;99.90
12872;DHT22;6504;53.766;9.626;2022-12-20T00:21:51;5.90;99.90
12872;DHT22;6504;53.766;9.626;2022-12-20T00:24:21;5.90;99.90
12872;DHT22;6504;53.766;9.626;2022-12-20T00:26:52;5.90;99.90
12872;DHT22;6504;53.766;9.626;2022-12-20T00:29:20;5.80;99.90
12872;DHT22;6504;53.766;9.626;2022-12-20T00:31:48;5.90;99.90
12872;DHT22;6504;53.766;9.626;2022-12-20T00:34:16;5.90;99.90
12872;DHT22;6504;53.766;9.626;2022-12-20T00:36:44;5.90;99.90
12872;DHT22;6504;53.766;9.626;2022-12-20T00:39:12;5.90;99.90
12872;DHT22;6504;53.766;9.626;2022-12-20T00:41:42;5.90;99.90
12872;DHT22;6504;53.766;9.626;2022-12-20T00:44:10;5.90;99.90
12872;DHT22;6504;53.766;9.626;2022-12-20T00:46:38;5.90;99.90
12872;DHT22;6504;53.766;9.626;2022-12-20T00:49:06;5.90;99.90
12872;DHT22;6504;53.766;9.626;2022-12-20T00:51:34;5.90;99.90
12872;DHT22;6504;53.766;9.626;2022-12-20T00:54:02;5.90;99.90
12872;DHT22;6504;53.766;9.626;2022-12-20T00:56:30;5.90;99.90
12872;DHT22;6504;53.766;9.626;2022-12-20T00:59:00;5.90;99.90
12872;DHT22;6504;53.766;9.626;2022-12-20T01:01:29;5.90;99.90
12872;DHT22;6504;53.766;9.626;2022-12-20T01:03:58;5.90;99.90
12872;DHT22;6504;53.766;9.626;2022-12-20T01:06:27;6.00;99.90
12872;DHT22;6504;53.766;9.626;2022-12-20T01:08:55;6.00;99.90
12872;DHT22;6504;53.766;9.626;2022-12-20T01:11:25;6.00;99.90
12872;DHT22;6504;53.766;9.626;2022-12-20T01:13:55;6.00;99.90
12872;DHT22;6504;53.766;9.626;2022-12-20T01:16:27;6.00;99.90
12872;DHT22;6504;53.766;9.626;2022-12-20T01:18:55;6.00;99.90
12872;DHT22;6504;53.766;9.626;2022-12-20T01:21:26;6.00;99.90
12872;DHT22;6504;53.766;9.626;2022-12-20T01:23:55;6.00;99.90
12872;DHT22;6504;53.766;9.626;2022-12-20T01:26:25;6.00;99.90
12872;DHT22;6504;53.766;9.626;2022-12-20T01:28:55;6.00;99.90
12872;DHT22;6504;53.766;9.626;2022-12-20T01:31:26;6.00;99.90
12872;DHT22;6504;53.766;9.626;2022-12-20T01:33:56;6.10;99.90
12872;DHT22;6504;53.766;9.626;2022-12-20T01:36:25;6.10;99.90
12872;DHT22;6504;53.766;9.626;2022-12-20T01:38:55;6.10;99.90
12872;DHT22;6504;53.766;9.626;2022-12-20T01:41:24;6.10;99.90
12872;DHT22;6504;53.766;9.626;2022-12-20T01:43:53;6.10;99.90
12872;DHT22;6504;53.766;9.626;2022-12-20T01:46:23;6.10;99.90
12872;DHT22;6504;53.766;9.626;2022-12-20T01:48:55;6.10;99.90
12872;DHT22;6504;53.766;9.626;2022-12-20T01:51:28;6.10;99.90
12872;DHT22;6504;53.766;9.626;2022-12-20T01:54:00;6.10;99.90
12872;DHT22;6504;53.766;9.626;2022-12-20T01:56:30;6.20;99.90
12872;DHT22;6504;53.766;9.626;2022-12-20T01:58:58;6.20;99.90
12872;DHT22;6504;53.766;9.626;2022-12-20T02:01:27;6.20;99.90
12872;DHT22;6504;53.766;9.626;2022-12-20T02:03:57;6.20;99.90
12872;DHT22;6504;53.766;9.626;2022-12-20T02:06:26;6.20;99.90
12872;DHT22;6504;53.766;9.626;2022-12-20T02:08:57;6.20;99.90
12872;DHT22;6504;53.766;9.626;2022-12-20T02:11:53;6.20;99.90
12872;DHT22;6504;53.766;9.626;2022-12-20T02:14:35;6.30;99.90
12872;DHT22;6504;53.766;9.626;2022-12-20T02:17:14;6.30;99.90
12872;DHT22;6504;53.766;9.626;2022-12-20T02:20:06;6.30;99.90
12872;DHT22;6504;53.766;9.626;2022-12-20T02:22:51;6.40;99.90
12872;DHT22;6504;53.766;9.626;2022-12-20T02:25:41;6.40;99.90
12872;DHT22;6504;53.766;9.626;2022-12-20T02:28:22;6.40;99.90
12872;DHT22;6504;53.766;9.626;2022-12-20T02:30:56;6.40;99.90
12872;DHT22;6504;53.766;9.626;2022-12-20T02:33:27;6.40;99.90
12872;DHT22;6504;53.766;9.626;2022-12-20T02:35:55;6.40;99.90
12872;DHT22;6504;53.766;9.626;2022-12-20T02:38:26;6.40;99.90
12872;DHT22;6504;53.766;9.626;2022-12-20T02:40:57;6.50;99.90
12872;DHT22;6504;53.766;9.626;2022-12-20T02:43:28;6.50;99.90
12872;DHT22;6504;53.766;9.626;2022-12-20T02:46:19;6.50;99.90
12872;DHT22;6504;53.766;9.626;2022-12-20T02:48:48;6.50;99.90
12872;DHT22;6504;53.766;9.626;2022-12-20T02:51:19;6.50;99.90
12872;DHT22;6504;53.766;9.626;2022-12-20T02:53:48;6.60;99.90
12872;DHT22;6504;53.766;9.626;2022-12-20T02:56:20;6.60;99.90
12872;DHT22;6504;53.766;9.626;2022-12-20T02:58:52;6.60;99.90
12872;DHT22;6504;53.766;9.626;2022-12-20T03:01:25;6.60;99.90
12872;DHT22;6504;53.766;9.626;2022-12-20T03:03:57;6.60;99.90
12872;DHT22;6504;53.766;9.626;2022-12-20T03:06:25;6.60;99.90
12872;DHT22;6504;53.766;9.626;2022-12-20T03:08:55;6.60;99.90
12872;DHT22;6504;53.766;9.626;2022-12-20T03:11:23;6.70;99.90
12872;DHT22;6504;53.766;9.626;2022-12-20T03:13:51;6.70;99.90
12872;DHT22;6504;53.766;9.626;2022-12-20T03:16:19;6.70;99.90
12872;DHT22;6504;53.766;9.626;2022-12-20T03:18:49;6.70;99.90
12872;DHT22;6504;53.766;9.626;2022-12-20T03:21:17;6.70;99.90
12872;DHT22;6504;53.766;9.626;2022-12-20T03:23:45;6.70;99.90
12872;DHT22;6504;53.766;9.626;2022-12-20T03:26:13;6.70;99.90
12872;DHT22;6504;53.766;9.626;2022-12-20T03:28:41;6.70;99.90
12872;DHT22;6504;53.766;9.626;2022-12-20T03:31:09;6.70;99.90
12872;DHT22;6504;53.766;9.626;2022-12-20T03:33:37;6.70;99.90
12872;DHT22;6504;53.766;9.626;2022-12-20T03:36:07;6.70;99.90
12872;DHT22;6504;53.766;9.626;2022-12-20T03:38:35;6.70;99.90
12872;DHT22;6504;53.766;9.626;2022-12-20T03:41:03;6.70;99.90
12872;DHT22;6504;53.766;9.626;2022-12-20T03:43:31;6.70;99.90
12872;DHT22;6504;53.766;9.626;2022-12-20T03:45:59;6.70;99.90
12872;DHT22;6504;53.766;9.626;2022-12-20T03:48:27;6.70;99.90
12872;DHT22;6504;53.766;9.626;2022-12-20T03:50:55;6.70;99.90
12872;DHT22;6504;53.766;9.626;2022-12-20T03:53:24;6.70;99.90
12872;DHT22;6504;53.766;9.626;2022-12-20T03:55:52;6.70;99.90
12872;DHT22;6504;53.766;9.626;2022-12-20T03:58:20;6.70;99.90
12872;DHT22;6504;53.766;9.626;2022-12-20T04:00:48;6.80;99.90
12872;DHT22;6504;53.766;9.626;2022-12-20T04:03:17;6.80;99.90
12872;DHT22;6504;53.766;9.626;2022-12-20T04:05:45;6.80;99.90
12872;DHT22;6504;53.766;9.626;2022-12-20T04:08:13;6.80;99.90
12872;DHT22;6504;53.766;9.626;2022-12-20T04:10:42;6.80;99.90
12872;DHT22;6504;53.766;9.626;2022-12-20T04:13:24;6.80;99.90
12872;DHT22;6504;53.766;9.626;2022-12-20T04:15:52;6.80;99.90
12872;DHT22;6504;53.766;9.626;2022-12-20T04:18:26;6.80;99.90
12872;DHT22;6504;53.766;9.626;2022-12-20T04:20:54;6.80;99.90
12872;DHT22;6504;53.766;9.626;2022-12-20T04:23:22;6.80;99.90
12872;DHT22;6504;53.766;9.626;2022-12-20T04:25:51;6.80;99.90
12872;DHT22;6504;53.766;9.626;2022-12-20T04:28:20;6.80;99.90
12872;DHT22;6504;53.766;9.626;2022-12-20T04:30:48;6.90;99.90
12872;DHT22;6504;53.766;9.626;2022-12-20T04:33:16;6.90;99.90
12872;DHT22;6504;53.766;9.626;2022-12-20T04:35:44;6.90;99.90
12872;DHT22;6504;53.766;9.626;2022-12-20T04:38:12;6.90;99.90
12872;DHT22;6504;53.766;9.626;2022-12-20T04:40:41;6.90;99.90
12872;DHT22;6504;53.766;9.626;2022-12-20T04:43:10;6.90;99.90
12872;DHT22;6504;53.766;9.626;2022-12-20T04:45:38;6.90;99.90
12872;DHT22;6504;53.766;9.626;2022-12-20T04:48:06;6.90;99.90
12872;DHT22;6504;53.766;9.626;2022-12-20T04:50:55;7.00;99.90
12872;DHT22;6504;53.766;9.626;2022-12-20T04:53:23;7.00;99.90
12872;DHT22;6504;53.766;9.626;2022-12-20T04:56:09;7.00;99.90
12872;DHT22;6504;53.766;9.626;2022-12-20T04:58:38;7.00;99.90
12872;DHT22;6504;53.766;9.626;2022-12-20T05:01:06;7.00;99.90
12872;DHT22;6504;53.766;9.626;2022-12-20T05:03:34;7.00;99.90
12872;DHT22;6504;53.766;9.626;2022-12-20T05:06:03;7.00;99.90
12872;DHT22;6504;53.766;9.626;2022-12-20T05:08:31;7.00;99.90
12872;DHT22;6504;53.766;9.626;2022-12-20T05:11:00;7.00;99.90
12872;DHT22;6504;53.766;9.626;2022-12-20T05:13:28;7.00;99.90
12872;DHT22;6504;53.766;9.626;2022-12-20T05:15:58;7.00;99.90
12872;DHT22;6504;53.766;9.626;2022-12-20T05:18:27;7.00;99.90
12872;DHT22;6504;53.766;9.626;2022-12-20T05:20:56;7.00;99.90
12872;DHT22;6504;53.766;9.626;2022-12-20T05:23:41;7.00;99.90
12872;DHT22;6504;53.766;9.626;2022-12-20T05:26:29;7.00;99.90
12872;DHT22;6504;53.766;9.626;2022-12-20T05:28:58;7.00;99.90
12872;DHT22;6504;53.766;9.626;2022-12-20T05:31:27;7.00;99.90
12872;DHT22;6504;53.766;9.626;2022-12-20T05:33:55;7.00;99.90
12872;DHT22;6504;53.766;9.626;2022-12-20T05:36:23;7.00;99.90
12872;DHT22;6504;53.766;9.626;2022-12-20T05:38:52;7.00;99.90
12872;DHT22;6504;53.766;9.626;2022-12-20T05:41:29;7.00;99.90
12872;DHT22;6504;53.766;9.626;2022-12-20T05:43:57;7.00;99.90
12872;DHT22;6504;53.766;9.626;2022-12-20T05:46:27;6.90;99.90
12872;DHT22;6504;53.766;9.626;2022-12-20T05:48:55;7.00;99.90
12872;DHT22;6504;53.766;9.626;2022-12-20T05:51:23;6.90;99.90
12872;DHT22;6504;53.766;9.626;2022-12-20T05:53:51;6.90;99.90
12872;DHT22;6504;53.766;9.626;2022-12-20T05:56:19;6.90;99.90
12872;DHT22;6504;53.766;9.626;2022-12-20T05:58:47;6.90;99.90
12872;DHT22;6504;53.766;9.626;2022-12-20T06:01:15;6.90;99.90
12872;DHT22;6504;53.766;9.626;2022-12-20T06:03:45;6.90;99.90
12872;DHT22;6504;53.766;9.626;2022-12-20T06:06:13;6.90;99.90
12872;DHT22;6504;53.766;9.626;2022-12-20T06:08:41;6.90;99.90
12872;DHT22;6504;53.766;9.626;2022-12-20T06:11:09;6.90;99.90
12872;DHT22;6504;53.766;9.626;2022-12-20T06:13:37;6.90;99.90
12872;DHT22;6504;53.766;9.626;2022-12-20T06:16:06;6.90;99.90
12872;DHT22;6504;53.766;9.626;2022-12-20T06:18:34;7.00;99.90
12872;DHT22;6504;53.766;9.626;2022-12-20T06:21:04;7.00;99.90
12872;DHT22;6504;53.766;9.626;2022-12-20T06:23:32;7.00;99.90
12872;DHT22;6504;53.766;9.626;2022-12-20T06:26:01;7.00;99.90
12872;DHT22;6504;53.766;9.626;2022-12-20T06:28:30;7.00;99.90
12872;DHT22;6504;53.766;9.626;2022-12-20T06:30:58;7.00;99.90
12872;DHT22;6504;53.766;9.626;2022-12-20T06:33:26;7.00;99.90
12872;DHT22;6504;53.766;9.626;2022-12-20T06:35:54;7.00;99.90
12872;DHT22;6504;53.766;9.626;2022-12-20T06:38:23;7.10;99.90
12872;DHT22;6504;53.766;9.626;2022-12-20T06:40:51;7.00;99.90
12872;DHT22;6504;53.766;9.626;2022-12-20T06:43:19;7.00;99.90
12872;DHT22;6504;53.766;9.626;2022-12-20T06:45:47;7.00;99.90
12872;DHT22;6504;53.766;9.626;2022-12-20T06:48:16;7.00;99.90
12872;DHT22;6504;53.766;9.626;2022-12-20T06:50:44;7.00;99.90
12872;DHT22;6504;53.766;9.626;2022-12-20T06:53:22;7.00;99.90
12872;DHT22;6504;53.766;9.626;2022-12-20T06:55:50;7.00;99.90
12872;DHT22;6504;53.766;9.626;2022-12-20T06:58:19;7.00;99.90
12872;DHT22;6504;53.766;9.626;2022-12-20T07:00:47;7.10;99.90
12872;DHT22;6504;53.766;9.626;2022-12-20T07:03:15;7.10;99.90
12872;DHT22;6504;53.766;9.626;2022-12-20T07:05:44;7.10;99.90
12872;DHT22;6504;53.766;9.626;2022-12-20T07:08:12;7.20;99.90
12872;DHT22;6504;53.766;9.626;2022-12-20T07:10:41;7.20;99.90
12872;DHT22;6504;53.766;9.626;2022-12-20T07:13:09;7.20;99.90
12872;DHT22;6504;53.766;9.626;2022-12-20T07:15:37;7.30;99.90
12872;DHT22;6504;53.766;9.626;2022-12-20T07:18:05;7.30;99.90
12872;DHT22;6504;53.766;9.626;2022-12-20T07:20:34;7.30;99.90
12872;DHT22;6504;53.766;9.626;2022-12-20T07:23:02;7.40;99.90
12872;DHT22;6504;53.766;9.626;2022-12-20T07:25:30;7.40;99.90
12872;DHT22;6504;53.766;9.626;2022-12-20T07:28:00;7.40;99.90
12872;DHT22;6504;53.766;9.626;2022-12-20T07:30:29;7.40;99.90
12872;DHT22;6504;53.766;9.626;2022-12-20T07:32:58;7.40;99.90
12872;DHT22;6504;53.766;9.626;2022-12-20T07:35:26;7.40;99.90
12872;DHT22;6504;53.766;9.626;2022-12-20T07:37:54;7.30;99.90
12872;DHT22;6504;53.766;9.626;2022-12-20T07:40:22;7.40;99.90
12872;DHT22;6504;53.766;9.626;2022-12-20T07:42:50;7.40;99.90
12872;DHT22;6504;53.766;9.626;2022-12-20T07:45:19;7.40;99.90
12872;DHT22;6504;53.766;9.626;2022-12-20T07:47:47;7.40;99.90
12872;DHT22;6504;53.766;9.626;2022-12-20T07:50:15;7.40;99.90
12872;DHT22;6504;53.766;9.626;2022-12-20T07:52:45;7.30;99.90
12872;DHT22;6504;53.766;9.626;2022-12-20T07:55:13;7.40;99.90
12872;DHT22;6504;53.766;9.626;2022-12-20T07:57:43;7.40;99.90
12872;DHT22;6504;53.766;9.626;2022-12-20T08:00:13;7.40;99.90
12872;DHT22;6504;53.766;9.626;2022-12-20T08:02:45;7.40;99.90
12872;DHT22;6504;53.766;9.626;2022-12-20T08:05:15;7.40;99.90
12872;DHT22;6504;53.766;9.626;2022-12-20T08:07:44;7.40;99.90
12872;DHT22;6504;53.766;9.626;2022-12-20T08:10:17;7.40;99.90
12872;DHT22;6504;53.766;9.626;2022-12-20T08:12:46;7.40;99.90
12872;DHT22;6504;53.766;9.626;2022-12-20T08:15:16;7.40;99.90
12872;DHT22;6504;53.766;9.626;2022-12-20T08:17:46;7.40;99.90
12872;DHT22;6504;53.766;9.626;2022-12-20T08:20:14;7.40;99.90
12872;DHT22;6504;53.766;9.626;2022-12-20T08:22:42;7.40;99.90
12872;DHT22;6504;53.766;9.626;2022-12-20T08:25:10;7.40;99.90
12872;DHT22;6504;53.766;9.626;2022-12-20T08:27:41;7.40;99.90
12872;DHT22;6504;53.766;9.626;2022-12-20T08:30:10;7.50;99.90
12872;DHT22;6504;53.766;9.626;2022-12-20T08:32:38;7.50;99.90
12872;DHT22;6504;53.766;9.626;2022-12-20T08:35:08;7.50;99.90
12872;DHT22;6504;53.766;9.626;2022-12-20T08:37:36;7.50;99.90
12872;DHT22;6504;53.766;9.626;2022-12-20T08:40:05;7.50;99.90
12872;DHT22;6504;53.766;9.626;2022-12-20T08:42:34;7.50;99.90
12872;DHT22;6504;53.766;9.626;2022-12-20T08:45:03;7.50;99.90
12872;DHT22;6504;53.766;9.626;2022-12-20T08:47:31;7.60;99.90
12872;DHT22;6504;53.766;9.626;2022-12-20T08:49:59;7.60;99.90
12872;DHT22;6504;53.766;9.626;2022-12-20T08:52:29;7.60;99.90
12872;DHT22;6504;53.766;9.626;2022-12-20T08:54:57;7.60;99.90
12872;DHT22;6504;53.766;9.626;2022-12-20T08:57:27;7.60;99.90
12872;DHT22;6504;53.766;9.626;2022-12-20T08:59:55;7.60;99.90
12872;DHT22;6504;53.766;9.626;2022-12-20T09:02:23;7.70;99.90
12872;DHT22;6504;53.766;9.626;2022-12-20T09:04:51;7.70;99.90
12872;DHT22;6504;53.766;9.626;2022-12-20T09:07:19;7.70;99.90
12872;DHT22;6504;53.766;9.626;2022-12-20T09:09:49;7.70;99.90
12872;DHT22;6504;53.766;9.626;2022-12-20T09:12:17;7.70;99.90
12872;DHT22;6504;53.766;9.626;2022-12-20T09:14:45;7.80;99.90
12872;DHT22;6504;53.766;9.626;2022-12-20T09:17:13;7.80;99.90
12872;DHT22;6504;53.766;9.626;2022-12-20T09:19:41;7.80;99.90
12872;DHT22;6504;53.766;9.626;2022-12-20T09:22:09;7.90;99.90
12872;DHT22;6504;53.766;9.626;2022-12-20T09:24:37;7.90;99.90
12872;DHT22;6504;53.766;9.626;2022-12-20T09:27:06;7.90;99.90
12872;DHT22;6504;53.766;9.626;2022-12-20T09:29:34;7.90;99.90
12872;DHT22;6504;53.766;9.626;2022-12-20T09:32:03;8.00;99.90
12872;DHT22;6504;53.766;9.626;2022-12-20T09:34:31;8.00;99.90
12872;DHT22;6504;53.766;9.626;2022-12-20T09:36:59;8.00;99.90
12872;DHT22;6504;53.766;9.626;2022-12-20T09:39:27;8.00;99.90
12872;DHT22;6504;53.766;9.626;2022-12-20T09:41:56;8.00;99.90
12872;DHT22;6504;53.766;9.626;2022-12-20T09:44:28;8.00;99.90
12872;DHT22;6504;53.766;9.626;2022-12-20T09:46:59;8.10;99.90
12872;DHT22;6504;53.766;9.626;2022-12-20T09:49:39;8.10;99.90
12872;DHT22;6504;53.766;9.626;2022-12-20T09:52:28;8.10;99.90
12872;DHT22;6504;53.766;9.626;2022-12-20T09:55:13;8.10;99.90
12872;DHT22;6504;53.766;9.626;2022-12-20T09:57:52;8.10;99.90
12872;DHT22;6504;53.766;9.626;2022-12-20T10:00:24;8.10;99.90
12872;DHT22;6504;53.766;9.626;2022-12-20T10:02:52;8.20;99.90
12872;DHT22;6504;53.766;9.626;2022-12-20T10:05:37;8.20;99.90
12872;DHT22;6504;53.766;9.626;2022-12-20T10:08:16;8.20;99.90
12872;DHT22;6504;53.766;9.626;2022-12-20T10:10:55;8.20;99.90
12872;DHT22;6504;53.766;9.626;2022-12-20T10:13:43;8.20;99.90
12872;DHT22;6504;53.766;9.626;2022-12-20T10:16:31;8.20;99.90
12872;DHT22;6504;53.766;9.626;2022-12-20T10:19:25;8.20;99.90
12872;DHT22;6504;53.766;9.626;2022-12-20T10:22:02;8.20;99.90
12872;DHT22;6504;53.766;9.626;2022-12-20T10:24:33;8.20;99.90
12872;DHT22;6504;53.766;9.626;2022-12-20T10:27:10;8.30;99.90
12872;DHT22;6504;53.766;9.626;2022-12-20T10:29:39;8.30;99.90
12872;DHT22;6504;53.766;9.626;2022-12-20T10:32:12;8.30;99.90
12872;DHT22;6504;53.766;9.626;2022-12-20T10:34:45;8.30;99.90
12872;DHT22;6504;53.766;9.626;2022-12-20T10:37:17;8.30;99.90
12872;DHT22;6504;53.766;9.626;2022-12-20T10:39:48;8.30;99.90
12872;DHT22;6504;53.766;9.626;2022-12-20T10:42:29;8.40;99.90
12872;DHT22;6504;53.766;9.626;2022-12-20T10:45:02;8.40;99.90
12872;DHT22;6504;53.766;9.626;2022-12-20T10:47:38;8.40;99.90
12872;DHT22;6504;53.766;9.626;2022-12-20T10:50:11;8.40;99.90
12872;DHT22;6504;53.766;9.626;2022-12-20T10:52:41;8.40;99.90
12872;DHT22;6504;53.766;9.626;2022-12-20T10:55:32;8.50;99.90
12872;DHT22;6504;53.766;9.626;2022-12-20T10:58:03;8.50;99.90
12872;DHT22;6504;53.766;9.626;2022-12-20T11:00:32;8.60;99.90
12872;DHT22;6504;53.766;9.626;2022-12-20T11:03:10;8.60;99.90
12872;DHT22;6504;53.766;9.626;2022-12-20T11:05:39;8.70;99.90
12872;DHT22;6504;53.766;9.626;2022-12-20T11:08:12;8.70;99.90
12872;DHT22;6504;53.766;9.626;2022-12-20T11:11:14;8.70;99.90
12872;DHT22;6504;53.766;9.626;2022-12-20T11:13:43;8.70;99.90
12872;DHT22;6504;53.766;9.626;2022-12-20T11:16:23;8.70;99.90
12872;DHT22;6504;53.766;9.626;2022-12-20T11:19:02;8.80;99.90
12872;DHT22;6504;53.766;9.626;2022-12-20T11:21:40;8.80;99.90
12872;DHT22;6504;53.766;9.626;2022-12-20T11:24:16;8.80;99.90
12872;DHT22;6504;53.766;9.626;2022-12-20T11:27:00;8.80;99.90
12872;DHT22;6504;53.766;9.626;2022-12-20T11:29:58;8.70;99.90
12872;DHT22;6504;53.766;9.626;2022-12-20T11:32:41;8.80;99.90
12872;DHT22;6504;53.766;9.626;2022-12-20T11:35:19;8.70;99.90
12872;DHT22;6504;53.766;9.626;2022-12-20T11:38:00;8.80;99.90
12872;DHT22;6504;53.766;9.626;2022-12-20T11:40:41;8.70;99.90
12872;DHT22;6504;53.766;9.626;2022-12-20T11:43:25;8.70;99.90
12872;DHT22;6504;53.766;9.626;2022-12-20T11:46:08;8.70;99.90
12872;DHT22;6504;53.766;9.626;2022-12-20T11:48:59;8.70;99.90
12872;DHT22;6504;53.766;9.626;2022-12-20T11:51:37;8.70;99.90
12872;DHT22;6504;53.766;9.626;2022-12-20T11:54:13;8.70;99.90
12872;DHT22;6504;53.766;9.626;2022-12-20T11:56:46;8.70;99.90
12872;DHT22;6504;53.766;9.626;2022-12-20T11:59:19;8.70;99.90
12872;DHT22;6504;53.766;9.626;2022-12-20T12:01:52;8.70;99.90
12872;DHT22;6504;53.766;9.626;2022-12-20T12:04:26;8.70;99.90
12872;DHT22;6504;53.766;9.626;2022-12-20T12:07:01;8.70;99.90
12872;DHT22;6504;53.766;9.626;2022-12-20T12:09:35;8.70;99.90
12872;DHT22;6504;53.766;9.626;2022-12-20T12:12:11;8.70;99.90
12872;DHT22;6504;53.766;9.626;2022-12-20T12:14:49;8.70;99.90
12872;DHT22;6504;53.766;9.626;2022-12-20T12:17:24;8.70;99.90
12872;DHT22;6504;53.766;9.626;2022-12-20T12:19:55;8.70;99.90
12872;DHT22;6504;53.766;9.626;2022-12-20T12:22:34;8.70;99.90
12872;DHT22;6504;53.766;9.626;2022-12-20T12:25:08;8.70;99.90
12872;DHT22;6504;53.766;9.626;2022-12-20T12:27:40;8.70;99.90
12872;DHT22;6504;53.766;9.626;2022-12-20T12:30:12;8.70;99.90
12872;DHT22;6504;53.766;9.626;2022-12-20T12:32:43;8.70;99.90
12872;DHT22;6504;53.766;9.626;2022-12-20T12:35:29;8.70;99.90
12872;DHT22;6504;53.766;9.626;2022-12-20T12:38:15;8.70;99.90
12872;DHT22;6504;53.766;9.626;2022-12-20T12:41:00;8.70;99.90
12872;DHT22;6504;53.766;9.626;2022-12-20T12:43:46;8.70;99.90
12872;DHT22;6504;53.766;9.626;2022-12-20T12:46:19;8.70;99.90
12872;DHT22;6504;53.766;9.626;2022-12-20T12:48:55;8.70;99.90
12872;DHT22;6504;53.766;9.626;2022-12-20T12:51:28;8.70;99.90
12872;DHT22;6504;53.766;9.626;2022-12-20T12:54:21;8.70;99.90
12872;DHT22;6504;53.766;9.626;2022-12-20T12:56:51;8.70;99.90
12872;DHT22;6504;53.766;9.626;2022-12-20T12:59:41;8.70;99.90
12872;DHT22;6504;53.766;9.626;2022-12-20T13:02:34;8.80;99.90
12872;DHT22;6504;53.766;9.626;2022-12-20T13:05:31;8.70;99.90
12872;DHT22;6504;53.766;9.626;2022-12-20T13:07:59;8.80;99.90
12872;DHT22;6504;53.766;9.626;2022-12-20T13:13:36;8.80;99.90
12872;DHT22;6504;53.766;9.626;2022-12-20T13:16:26;8.80;99.90
12872;DHT22;6504;53.766;9.626;2022-12-20T13:19:30;8.80;99.90
12872;DHT22;6504;53.766;9.626;2022-12-20T13:22:18;8.80;99.90
12872;DHT22;6504;53.766;9.626;2022-12-20T13:24:53;8.80;99.90
12872;DHT22;6504;53.766;9.626;2022-12-20T13:27:31;8.80;99.90
12872;DHT22;6504;53.766;9.626;2022-12-20T13:30:28;8.70;99.90
12872;DHT22;6504;53.766;9.626;2022-12-20T13:33:17;8.80;99.90
12872;DHT22;6504;53.766;9.626;2022-12-20T13:38:56;8.70;99.90
12872;DHT22;6504;53.766;9.626;2022-12-20T13:41:36;8.70;99.90
12872;DHT22;6504;53.766;9.626;2022-12-20T13:44:27;8.70;99.90
12872;DHT22;6504;53.766;9.626;2022-12-20T13:47:06;8.70;99.90
12872;DHT22;6504;53.766;9.626;2022-12-20T13:49:40;8.70;99.90
12872;DHT22;6504;53.766;9.626;2022-12-20T13:52:26;8.70;99.90
12872;DHT22;6504;53.766;9.626;2022-12-20T13:54:57;8.70;99.90
12872;DHT22;6504;53.766;9.626;2022-12-20T13:57:29;8.60;99.90
12872;DHT22;6504;53.766;9.626;2022-12-20T14:00:01;8.60;99.90
12872;DHT22;6504;53.766;9.626;2022-12-20T14:02:39;8.70;99.90
12872;DHT22;6504;53.766;9.626;2022-12-20T14:05:15;8.60;99.90
12872;DHT22;6504;53.766;9.626;2022-12-20T14:07:45;8.60;99.90
12872;DHT22;6504;53.766;9.626;2022-12-20T14:10:20;8.60;99.90
12872;DHT22;6504;53.766;9.626;2022-12-20T14:12:50;8.60;99.90
12872;DHT22;6504;53.766;9.626;2022-12-20T14:15:23;8.60;99.90
12872;DHT22;6504;53.766;9.626;2022-12-20T14:17:53;8.60;99.90
12872;DHT22;6504;53.766;9.626;2022-12-20T14:20:24;8.60;99.90
12872;DHT22;6504;53.766;9.626;2022-12-20T14:22:59;8.60;99.90
12872;DHT22;6504;53.766;9.626;2022-12-20T14:25:36;8.60;99.90
12872;DHT22;6504;53.766;9.626;2022-12-20T14:28:05;8.60;99.90
12872;DHT22;6504;53.766;9.626;2022-12-20T14:30:41;8.60;99.90
12872;DHT22;6504;53.766;9.626;2022-12-20T14:33:19;8.50;99.90
12872;DHT22;6504;53.766;9.626;2022-12-20T14:35:48;8.60;99.90
12872;DHT22;6504;53.766;9.626;2022-12-20T14:38:21;8.50;99.90
12872;DHT22;6504;53.766;9.626;2022-12-20T14:40:49;8.50;99.90
12872;DHT22;6504;53.766;9.626;2022-12-20T14:43:25;8.50;99.90
12872;DHT22;6504;53.766;9.626;2022-12-20T14:46:12;8.50;99.90
12872;DHT22;6504;53.766;9.626;2022-12-20T14:48:44;8.50;99.90
12872;DHT22;6504;53.766;9.626;2022-12-20T14:51:18;8.50;99.90
12872;DHT22;6504;53.766;9.626;2022-12-20T14:53:48;8.50;99.90
12872;DHT22;6504;53.766;9.626;2022-12-20T14:56:19;8.50;99.90
12872;DHT22;6504;53.766;9.626;2022-12-20T14:59:02;8.50;99.90
12872;DHT22;6504;53.766;9.626;2022-12-20T15:01:31;8.50;99.90
12872;DHT22;6504;53.766;9.626;2022-12-20T15:04:22;8.50;99.90
12872;DHT22;6504;53.766;9.626;2022-12-20T15:06:50;8.50;99.90
12872;DHT22;6504;53.766;9.626;2022-12-20T15:09:20;8.40;99.90
12872;DHT22;6504;53.766;9.626;2022-12-20T15:11:48;8.40;99.90
12872;DHT22;6504;53.766;9.626;2022-12-20T15:14:25;8.40;99.90
12872;DHT22;6504;53.766;9.626;2022-12-20T15:16:55;8.40;99.90
12872;DHT22;6504;53.766;9.626;2022-12-20T15:19:25;8.40;99.90
12872;DHT22;6504;53.766;9.626;2022-12-20T15:21:53;8.40;99.90
12872;DHT22;6504;53.766;9.626;2022-12-20T15:24:24;8.40;99.90
12872;DHT22;6504;53.766;9.626;2022-12-20T15:26:52;8.40;99.90
12872;DHT22;6504;53.766;9.626;2022-12-20T15:29:22;8.40;99.90
12872;DHT22;6504;53.766;9.626;2022-12-20T15:31:52;8.40;99.90
12872;DHT22;6504;53.766;9.626;2022-12-20T15:34:29;8.40;99.90
12872;DHT22;6504;53.766;9.626;2022-12-20T15:36:57;8.40;99.90
12872;DHT22;6504;53.766;9.626;2022-12-20T15:39:28;8.40;99.90
12872;DHT22;6504;53.766;9.626;2022-12-20T15:41:59;8.40;99.90
12872;DHT22;6504;53.766;9.626;2022-12-20T15:44:28;8.40;99.90
12872;DHT22;6504;53.766;9.626;2022-12-20T15:46:57;8.40;99.90
12872;DHT22;6504;53.766;9.626;2022-12-20T15:49:28;8.40;99.90
12872;DHT22;6504;53.766;9.626;2022-12-20T15:51:57;8.40;99.90
12872;DHT22;6504;53.766;9.626;2022-12-20T15:54:27;8.40;99.90
12872;DHT22;6504;53.766;9.626;2022-12-20T15:56:57;8.40;99.90
12872;DHT22;6504;53.766;9.626;2022-12-20T15:59:26;8.40;99.90
12872;DHT22;6504;53.766;9.626;2022-12-20T16:02:20;8.40;99.90
12872;DHT22;6504;53.766;9.626;2022-12-20T16:04:50;8.40;99.90
12872;DHT22;6504;53.766;9.626;2022-12-20T16:07:18;8.40;99.90
12872;DHT22;6504;53.766;9.626;2022-12-20T16:09:46;8.40;99.90
12872;DHT22;6504;53.766;9.626;2022-12-20T16:12:16;8.40;99.90
12872;DHT22;6504;53.766;9.626;2022-12-20T16:14:44;8.40;99.90
12872;DHT22;6504;53.766;9.626;2022-12-20T16:17:13;8.40;99.90
12872;DHT22;6504;53.766;9.626;2022-12-20T16:19:42;8.40;99.90
12872;DHT22;6504;53.766;9.626;2022-12-20T16:22:14;8.40;99.90
12872;DHT22;6504;53.766;9.626;2022-12-20T16:24:43;8.40;99.90
12872;DHT22;6504;53.766;9.626;2022-12-20T16:27:11;8.40;99.90
12872;DHT22;6504;53.766;9.626;2022-12-20T16:29:39;8.40;99.90
12872;DHT22;6504;53.766;9.626;2022-12-20T16:32:12;8.40;99.90
12872;DHT22;6504;53.766;9.626;2022-12-20T16:34:41;8.40;99.90
12872;DHT22;6504;53.766;9.626;2022-12-20T16:37:09;8.40;99.90
12872;DHT22;6504;53.766;9.626;2022-12-20T16:39:39;8.40;99.90
12872;DHT22;6504;53.766;9.626;2022-12-20T16:42:11;8.40;99.90